sensor_id;sensor_type;location;lat;lon;timestamp;temperature;humidity
59309;DHT22;48433;53.016;-2.260;2022-08-01T00:00:52;11.20;99.90
59309;DHT22;48433;53.016;-2.260;2022-08-01T00:03:21;11.10;99.90
59309;DHT22;48433;53.016;-2.260;2022-08-01T00:05:49;11.10;99.90
59309;DHT22;48433;53.016;-2.260;2022-08-01T00:08:16;11.10;99.90
59309;DHT22;48433;53.016;-2.260;2022-08-01T00:10:44;11.10;99.90
59309;DHT22;48433;53.016;-2.260;2022-08-01T00:13:11;11.20;99.90
59309;DHT22;48433;53.016;-2.260;2022-08-01T00:15:39;11.20;99.90
59309;DHT22;48433;53.016;-2.260;2022-08-01T00:18:10;11.20;99.90
59309;DHT22;48433;53.016;-2.260;2022-08-01T00:20:38;11.20;99.90
59309;DHT22;48433;53.016;-2.260;2022-08-01T00:23:05;11.10;99.90
59309;DHT22;48433;53.016;-2.260;2022-08-01T00:25:33;11.00;99.90
59309;DHT22;48433;53.016;-2.260;2022-08-01T00:28:01;11.00;99.90
59309;DHT22;48433;53.016;-2.260;2022-08-01T00:30:30;11.00;99.90
59309;DHT22;48433;53.016;-2.260;2022-08-01T00:32:58;10.90;99.90
59309;DHT22;48433;53.016;-2.260;2022-08-01T00:35:26;10.90;99.90
59309;DHT22;48433;53.016;-2.260;2022-08-01T00:37:53;10.80;99.90
59309;DHT22;48433;53.016;-2.260;2022-08-01T00:40:21;10.80;99.90
59309;DHT22;48433;53.016;-2.260;2022-08-01T00:42:49;10.80;99.90
59309;DHT22;48433;53.016;-2.260;2022-08-01T00:45:17;10.80;99.90
59309;DHT22;48433;53.016;-2.260;2022-08-01T00:47:44;10.80;99.90
59309;DHT22;48433;53.016;-2.260;2022-08-01T00:50:12;10.80;99.90
59309;DHT22;48433;53.016;-2.260;2022-08-01T00:52:41;10.80;99.90
59309;DHT22;48433;53.016;-2.260;2022-08-01T00:55:19;10.80;99.90
59309;DHT22;48433;53.016;-2.260;2022-08-01T00:57:47;10.80;99.90
59309;DHT22;48433;53.016;-2.260;2022-08-01T01:00:33;10.80;99.90
59309;DHT22;48433;53.016;-2.260;2022-08-01T01:03:24;10.70;99.90
59309;DHT22;48433;53.016;-2.260;2022-08-01T01:20:21;10.50;99.90
59309;DHT22;48433;53.016;-2.260;2022-08-01T01:23:06;10.50;99.90
59309;DHT22;48433;53.016;-2.260;2022-08-01T01:31:00;10.40;99.90
59309;DHT22;48433;53.016;-2.260;2022-08-01T01:33:32;10.30;99.90
59309;DHT22;48433;53.016;-2.260;2022-08-01T01:36:05;10.30;99.90
59309;DHT22;48433;53.016;-2.260;2022-08-01T01:38:41;10.30;99.90
59309;DHT22;48433;53.016;-2.260;2022-08-01T01:41:11;10.30;99.90
59309;DHT22;48433;53.016;-2.260;2022-08-01T01:43:40;10.20;99.90
59309;DHT22;48433;53.016;-2.260;2022-08-01T01:46:10;10.20;99.90
59309;DHT22;48433;53.016;-2.260;2022-08-01T01:48:38;10.20;99.90
59309;DHT22;48433;53.016;-2.260;2022-08-01T01:51:08;10.20;99.90
59309;DHT22;48433;53.016;-2.260;2022-08-01T01:53:36;10.20;99.90
59309;DHT22;48433;53.016;-2.260;2022-08-01T01:56:04;10.10;99.90
59309;DHT22;48433;53.016;-2.260;2022-08-01T01:58:33;10.10;99.90
59309;DHT22;48433;53.016;-2.260;2022-08-01T02:01:02;10.10;99.90
59309;DHT22;48433;53.016;-2.260;2022-08-01T02:03:30;10.10;99.90
59309;DHT22;48433;53.016;-2.260;2022-08-01T02:05:59;10.10;99.90
59309;DHT22;48433;53.016;-2.260;2022-08-01T02:08:29;10.10;99.90
59309;DHT22;48433;53.016;-2.260;2022-08-01T02:10:59;10.10;99.90
59309;DHT22;48433;53.016;-2.260;2022-08-01T02:14:00;10.10;99.90
59309;DHT22;48433;53.016;-2.260;2022-08-01T02:16:33;10.10;99.90
59309;DHT22;48433;53.016;-2.260;2022-08-01T02:19:03;10.20;99.90
59309;DHT22;48433;53.016;-2.260;2022-08-01T02:21:46;10.20;99.90
59309;DHT22;48433;53.016;-2.260;2022-08-01T02:24:24;10.20;99.90
59309;DHT22;48433;53.016;-2.260;2022-08-01T02:27:01;10.20;99.90
59309;DHT22;48433;53.016;-2.260;2022-08-01T02:29:45;10.20;99.90
59309;DHT22;48433;53.016;-2.260;2022-08-01T02:32:24;10.20;99.90
59309;DHT22;48433;53.016;-2.260;2022-08-01T02:34:53;10.20;99.90
59309;DHT22;48433;53.016;-2.260;2022-08-01T02:37:24;10.10;99.90
59309;DHT22;48433;53.016;-2.260;2022-08-01T02:39:54;10.10;99.90
59309;DHT22;48433;53.016;-2.260;2022-08-01T02:42:23;10.10;99.90
59309;DHT22;48433;53.016;-2.260;2022-08-01T02:44:54;10.20;99.90
59309;DHT22;48433;53.016;-2.260;2022-08-01T02:47:23;10.20;99.90
59309;DHT22;48433;53.016;-2.260;2022-08-01T02:49:52;10.20;99.90
59309;DHT22;48433;53.016;-2.260;2022-08-01T02:52:23;10.20;99.90
59309;DHT22;48433;53.016;-2.260;2022-08-01T02:54:54;10.20;99.90
59309;DHT22;48433;53.016;-2.260;2022-08-01T02:57:24;10.20;99.90
59309;DHT22;48433;53.016;-2.260;2022-08-01T03:00:14;10.10;99.90
59309;DHT22;48433;53.016;-2.260;2022-08-01T03:02:43;10.10;99.90
59309;DHT22;48433;53.016;-2.260;2022-08-01T03:05:15;10.10;99.90
59309;DHT22;48433;53.016;-2.260;2022-08-01T03:07:45;10.00;99.90
59309;DHT22;48433;53.016;-2.260;2022-08-01T03:10:16;10.00;99.90
59309;DHT22;48433;53.016;-2.260;2022-08-01T03:12:45;10.00;99.90
59309;DHT22;48433;53.016;-2.260;2022-08-01T03:15:15;10.00;99.90
59309;DHT22;48433;53.016;-2.260;2022-08-01T03:17:45;10.00;99.90
59309;DHT22;48433;53.016;-2.260;2022-08-01T03:20:15;10.10;99.90
59309;DHT22;48433;53.016;-2.260;2022-08-01T03:22:45;10.10;99.90
59309;DHT22;48433;53.016;-2.260;2022-08-01T03:25:15;10.10;99.90
59309;DHT22;48433;53.016;-2.260;2022-08-01T03:27:47;10.10;99.90
59309;DHT22;48433;53.016;-2.260;2022-08-01T03:30:15;10.10;99.90
59309;DHT22;48433;53.016;-2.260;2022-08-01T03:32:43;10.10;99.90
59309;DHT22;48433;53.016;-2.260;2022-08-01T03:35:10;10.10;99.90
59309;DHT22;48433;53.016;-2.260;2022-08-01T03:37:41;10.10;99.90
59309;DHT22;48433;53.016;-2.260;2022-08-01T03:40:40;10.10;99.90
59309;DHT22;48433;53.016;-2.260;2022-08-01T03:43:22;10.10;99.90
59309;DHT22;48433;53.016;-2.260;2022-08-01T03:45:51;10.10;99.90
59309;DHT22;48433;53.016;-2.260;2022-08-01T03:48:27;10.10;99.90
59309;DHT22;48433;53.016;-2.260;2022-08-01T03:50:56;10.20;99.90
59309;DHT22;48433;53.016;-2.260;2022-08-01T03:53:30;10.20;99.90
59309;DHT22;48433;53.016;-2.260;2022-08-01T03:56:00;10.20;99.90
59309;DHT22;48433;53.016;-2.260;2022-08-01T03:58:29;10.20;99.90
59309;DHT22;48433;53.016;-2.260;2022-08-01T04:00:58;10.10;99.90
59309;DHT22;48433;53.016;-2.260;2022-08-01T04:03:26;10.20;99.90
59309;DHT22;48433;53.016;-2.260;2022-08-01T04:05:54;10.20;99.90
59309;DHT22;48433;53.016;-2.260;2022-08-01T04:08:22;10.20;99.90
59309;DHT22;48433;53.016;-2.260;2022-08-01T04:10:56;10.10;99.90
59309;DHT22;48433;53.016;-2.260;2022-08-01T04:13:25;10.10;99.90
59309;DHT22;48433;53.016;-2.260;2022-08-01T04:16:04;10.10;99.90
59309;DHT22;48433;53.016;-2.260;2022-08-01T04:18:32;10.10;99.90
59309;DHT22;48433;53.016;-2.260;2022-08-01T04:21:00;10.10;99.90
59309;DHT22;48433;53.016;-2.260;2022-08-01T04:23:28;10.10;99.90
59309;DHT22;48433;53.016;-2.260;2022-08-01T04:26:01;10.20;99.90
59309;DHT22;48433;53.016;-2.260;2022-08-01T04:28:34;10.20;99.90
59309;DHT22;48433;53.016;-2.260;2022-08-01T04:31:07;10.20;99.90
59309;DHT22;48433;53.016;-2.260;2022-08-01T04:33:38;10.20;99.90
59309;DHT22;48433;53.016;-2.260;2022-08-01T04:36:10;10.30;99.90
59309;DHT22;48433;53.016;-2.260;2022-08-01T04:38:40;10.30;99.90
59309;DHT22;48433;53.016;-2.260;2022-08-01T04:41:11;10.30;99.90
59309;DHT22;48433;53.016;-2.260;2022-08-01T04:43:39;10.30;99.90
59309;DHT22;48433;53.016;-2.260;2022-08-01T04:46:11;10.30;99.90
59309;DHT22;48433;53.016;-2.260;2022-08-01T04:48:54;10.30;99.90
59309;DHT22;48433;53.016;-2.260;2022-08-01T04:51:22;10.30;99.90
59309;DHT22;48433;53.016;-2.260;2022-08-01T04:53:50;10.30;99.90
59309;DHT22;48433;53.016;-2.260;2022-08-01T04:56:19;10.30;99.90
59309;DHT22;48433;53.016;-2.260;2022-08-01T04:58:48;10.30;99.90
59309;DHT22;48433;53.016;-2.260;2022-08-01T05:01:41;10.40;99.90
59309;DHT22;48433;53.016;-2.260;2022-08-01T05:04:09;10.40;99.90
59309;DHT22;48433;53.016;-2.260;2022-08-01T05:06:37;10.40;99.90
59309;DHT22;48433;53.016;-2.260;2022-08-01T05:09:04;10.40;99.90
59309;DHT22;48433;53.016;-2.260;2022-08-01T05:11:32;10.50;99.90
59309;DHT22;48433;53.016;-2.260;2022-08-01T05:14:18;10.50;99.90
59309;DHT22;48433;53.016;-2.260;2022-08-01T05:17:02;10.50;99.90
59309;DHT22;48433;53.016;-2.260;2022-08-01T05:19:31;10.50;99.90
59309;DHT22;48433;53.016;-2.260;2022-08-01T05:22:02;10.60;99.90
59309;DHT22;48433;53.016;-2.260;2022-08-01T05:24:34;10.70;99.90
59309;DHT22;48433;53.016;-2.260;2022-08-01T05:27:04;10.80;99.90
59309;DHT22;48433;53.016;-2.260;2022-08-01T05:29:34;10.90;99.90
59309;DHT22;48433;53.016;-2.260;2022-08-01T05:32:02;11.00;99.90
59309;DHT22;48433;53.016;-2.260;2022-08-01T05:34:30;11.00;99.90
59309;DHT22;48433;53.016;-2.260;2022-08-01T05:36:58;11.10;99.90
59309;DHT22;48433;53.016;-2.260;2022-08-01T05:39:29;11.10;99.90
59309;DHT22;48433;53.016;-2.260;2022-08-01T05:41:57;11.20;99.90
59309;DHT22;48433;53.016;-2.260;2022-08-01T05:44:25;11.30;99.90
59309;DHT22;48433;53.016;-2.260;2022-08-01T05:46:53;11.40;99.90
59309;DHT22;48433;53.016;-2.260;2022-08-01T05:49:21;11.40;99.90
59309;DHT22;48433;53.016;-2.260;2022-08-01T05:51:49;11.50;99.90
59309;DHT22;48433;53.016;-2.260;2022-08-01T05:54:16;11.60;99.90
59309;DHT22;48433;53.016;-2.260;2022-08-01T05:56:44;11.80;99.90
59309;DHT22;48433;53.016;-2.260;2022-08-01T05:59:11;11.90;99.90
59309;DHT22;48433;53.016;-2.260;2022-08-01T06:01:39;11.90;99.90
59309;DHT22;48433;53.016;-2.260;2022-08-01T06:04:11;12.00;99.90
59309;DHT22;48433;53.016;-2.260;2022-08-01T06:06:38;12.10;99.90
59309;DHT22;48433;53.016;-2.260;2022-08-01T06:09:06;12.10;99.90
59309;DHT22;48433;53.016;-2.260;2022-08-01T06:11:33;12.20;99.90
59309;DHT22;48433;53.016;-2.260;2022-08-01T06:14:01;12.30;99.90
59309;DHT22;48433;53.016;-2.260;2022-08-01T06:16:29;12.40;99.90
59309;DHT22;48433;53.016;-2.260;2022-08-01T06:18:56;12.50;99.90
59309;DHT22;48433;53.016;-2.260;2022-08-01T06:21:24;12.70;99.90
59309;DHT22;48433;53.016;-2.260;2022-08-01T06:23:52;12.80;99.90
59309;DHT22;48433;53.016;-2.260;2022-08-01T06:26:19;12.90;99.90
59309;DHT22;48433;53.016;-2.260;2022-08-01T06:28:47;13.00;99.90
59309;DHT22;48433;53.016;-2.260;2022-08-01T06:31:15;13.10;99.90
59309;DHT22;48433;53.016;-2.260;2022-08-01T06:33:42;13.30;99.90
59309;DHT22;48433;53.016;-2.260;2022-08-01T06:36:10;13.40;99.90
59309;DHT22;48433;53.016;-2.260;2022-08-01T06:38:38;13.40;99.90
59309;DHT22;48433;53.016;-2.260;2022-08-01T06:41:05;13.50;99.90
59309;DHT22;48433;53.016;-2.260;2022-08-01T06:43:33;13.60;99.90
59309;DHT22;48433;53.016;-2.260;2022-08-01T06:46:00;13.60;99.90
59309;DHT22;48433;53.016;-2.260;2022-08-01T06:48:28;13.70;99.90
59309;DHT22;48433;53.016;-2.260;2022-08-01T06:50:56;13.70;99.90
59309;DHT22;48433;53.016;-2.260;2022-08-01T06:53:44;13.70;99.90
59309;DHT22;48433;53.016;-2.260;2022-08-01T06:56:11;13.70;99.90
59309;DHT22;48433;53.016;-2.260;2022-08-01T06:58:39;13.70;99.90
59309;DHT22;48433;53.016;-2.260;2022-08-01T07:01:07;13.60;99.90
59309;DHT22;48433;53.016;-2.260;2022-08-01T07:03:35;13.60;99.90
59309;DHT22;48433;53.016;-2.260;2022-08-01T07:06:22;13.60;99.90
59309;DHT22;48433;53.016;-2.260;2022-08-01T07:08:51;13.60;99.90
59309;DHT22;48433;53.016;-2.260;2022-08-01T07:11:20;13.60;99.90
59309;DHT22;48433;53.016;-2.260;2022-08-01T07:13:48;13.70;99.90
59309;DHT22;48433;53.016;-2.260;2022-08-01T07:16:16;13.80;99.90
59309;DHT22;48433;53.016;-2.260;2022-08-01T07:18:44;13.90;99.90
59309;DHT22;48433;53.016;-2.260;2022-08-01T07:21:11;14.00;99.90
59309;DHT22;48433;53.016;-2.260;2022-08-01T07:23:59;14.20;99.90
59309;DHT22;48433;53.016;-2.260;2022-08-01T07:26:27;14.30;99.90
59309;DHT22;48433;53.016;-2.260;2022-08-01T07:28:55;14.50;99.90
59309;DHT22;48433;53.016;-2.260;2022-08-01T07:31:22;14.70;99.90
59309;DHT22;48433;53.016;-2.260;2022-08-01T07:33:52;14.90;99.90
59309;DHT22;48433;53.016;-2.260;2022-08-01T07:36:20;15.10;99.90
59309;DHT22;48433;53.016;-2.260;2022-08-01T07:38:48;15.30;99.90
59309;DHT22;48433;53.016;-2.260;2022-08-01T07:41:16;15.40;99.90
59309;DHT22;48433;53.016;-2.260;2022-08-01T07:43:44;15.50;99.90
59309;DHT22;48433;53.016;-2.260;2022-08-01T07:46:23;15.70;99.90
59309;DHT22;48433;53.016;-2.260;2022-08-01T07:48:52;15.90;99.90
59309;DHT22;48433;53.016;-2.260;2022-08-01T07:51:21;16.00;99.90
59309;DHT22;48433;53.016;-2.260;2022-08-01T07:53:49;16.20;99.90
59309;DHT22;48433;53.016;-2.260;2022-08-01T07:56:18;16.30;99.90
59309;DHT22;48433;53.016;-2.260;2022-08-01T07:58:47;16.50;99.90
59309;DHT22;48433;53.016;-2.260;2022-08-01T08:01:15;16.60;99.90
59309;DHT22;48433;53.016;-2.260;2022-08-01T08:03:43;16.80;99.90
59309;DHT22;48433;53.016;-2.260;2022-08-01T08:06:11;17.00;99.90
59309;DHT22;48433;53.016;-2.260;2022-08-01T08:08:39;17.10;99.90
59309;DHT22;48433;53.016;-2.260;2022-08-01T08:11:07;17.30;99.90
59309;DHT22;48433;53.016;-2.260;2022-08-01T08:13:35;17.40;99.90
59309;DHT22;48433;53.016;-2.260;2022-08-01T08:16:02;17.60;99.90
59309;DHT22;48433;53.016;-2.260;2022-08-01T08:18:30;17.70;99.90
59309;DHT22;48433;53.016;-2.260;2022-08-01T08:20:58;17.90;99.90
59309;DHT22;48433;53.016;-2.260;2022-08-01T08:23:32;18.00;99.90
59309;DHT22;48433;53.016;-2.260;2022-08-01T08:26:19;18.20;99.90
59309;DHT22;48433;53.016;-2.260;2022-08-01T08:28:46;18.40;99.90
59309;DHT22;48433;53.016;-2.260;2022-08-01T08:31:14;18.50;99.90
59309;DHT22;48433;53.016;-2.260;2022-08-01T08:34:02;18.70;99.90
59309;DHT22;48433;53.016;-2.260;2022-08-01T08:36:29;18.70;99.90
59309;DHT22;48433;53.016;-2.260;2022-08-01T08:38:58;18.80;98.80
59309;DHT22;48433;53.016;-2.260;2022-08-01T08:41:30;18.90;98.50
59309;DHT22;48433;53.016;-2.260;2022-08-01T08:44:06;19.00;97.90
59309;DHT22;48433;53.016;-2.260;2022-08-01T08:46:44;19.10;97.70
59309;DHT22;48433;53.016;-2.260;2022-08-01T08:49:20;19.30;97.00
59309;DHT22;48433;53.016;-2.260;2022-08-01T08:51:50;19.40;96.30
59309;DHT22;48433;53.016;-2.260;2022-08-01T08:54:21;19.60;96.00
59309;DHT22;48433;53.016;-2.260;2022-08-01T08:56:59;19.60;94.70
59309;DHT22;48433;53.016;-2.260;2022-08-01T08:59:28;19.60;94.80
59309;DHT22;48433;53.016;-2.260;2022-08-01T09:01:57;19.60;94.00
59309;DHT22;48433;53.016;-2.260;2022-08-01T09:04:26;19.80;93.90
59309;DHT22;48433;53.016;-2.260;2022-08-01T09:06:54;19.90;93.50
59309;DHT22;48433;53.016;-2.260;2022-08-01T09:09:23;20.00;93.40
59309;DHT22;48433;53.016;-2.260;2022-08-01T09:11:51;20.10;93.40
59309;DHT22;48433;53.016;-2.260;2022-08-01T09:14:26;20.30;93.60
59309;DHT22;48433;53.016;-2.260;2022-08-01T09:17:01;20.40;93.80
59309;DHT22;48433;53.016;-2.260;2022-08-01T09:19:37;20.60;93.80
59309;DHT22;48433;53.016;-2.260;2022-08-01T09:22:13;20.60;93.30
59309;DHT22;48433;53.016;-2.260;2022-08-01T09:24:41;20.60;93.40
59309;DHT22;48433;53.016;-2.260;2022-08-01T09:27:18;20.60;93.40
59309;DHT22;48433;53.016;-2.260;2022-08-01T09:29:50;20.70;93.10
59309;DHT22;48433;53.016;-2.260;2022-08-01T09:32:30;20.70;92.60
59309;DHT22;48433;53.016;-2.260;2022-08-01T09:35:26;20.90;92.00
59309;DHT22;48433;53.016;-2.260;2022-08-01T09:38:23;21.00;91.50
59309;DHT22;48433;53.016;-2.260;2022-08-01T09:40:59;21.20;91.30
59309;DHT22;48433;53.016;-2.260;2022-08-01T09:43:30;21.30;90.30
59309;DHT22;48433;53.016;-2.260;2022-08-01T09:46:03;21.40;89.30
59309;DHT22;48433;53.016;-2.260;2022-08-01T09:48:31;21.60;87.80
59309;DHT22;48433;53.016;-2.260;2022-08-01T09:51:00;21.70;87.20
59309;DHT22;48433;53.016;-2.260;2022-08-01T09:53:47;21.80;84.00
59309;DHT22;48433;53.016;-2.260;2022-08-01T09:56:20;21.80;82.60
59309;DHT22;48433;53.016;-2.260;2022-08-01T09:58:54;21.90;82.10
59309;DHT22;48433;53.016;-2.260;2022-08-01T10:01:42;22.00;82.70
59309;DHT22;48433;53.016;-2.260;2022-08-01T10:04:19;22.20;81.60
59309;DHT22;48433;53.016;-2.260;2022-08-01T10:06:49;22.50;78.00
59309;DHT22;48433;53.016;-2.260;2022-08-01T10:09:29;22.70;77.70
59309;DHT22;48433;53.016;-2.260;2022-08-01T10:12:08;23.00;77.30
59309;DHT22;48433;53.016;-2.260;2022-08-01T10:14:44;23.30;75.20
59309;DHT22;48433;53.016;-2.260;2022-08-01T10:17:18;23.40;72.00
59309;DHT22;48433;53.016;-2.260;2022-08-01T10:19:48;23.50;71.60
59309;DHT22;48433;53.016;-2.260;2022-08-01T10:22:20;23.60;70.70
59309;DHT22;48433;53.016;-2.260;2022-08-01T10:24:55;23.90;72.00
59309;DHT22;48433;53.016;-2.260;2022-08-01T10:27:23;24.30;72.20
59309;DHT22;48433;53.016;-2.260;2022-08-01T10:30:06;24.80;70.70
59309;DHT22;48433;53.016;-2.260;2022-08-01T10:32:49;25.10;69.30
59309;DHT22;48433;53.016;-2.260;2022-08-01T10:35:18;25.40;67.60
59309;DHT22;48433;53.016;-2.260;2022-08-01T10:38:06;25.90;67.70
59309;DHT22;48433;53.016;-2.260;2022-08-01T10:40:41;26.50;64.60
59309;DHT22;48433;53.016;-2.260;2022-08-01T10:43:13;26.80;59.40
59309;DHT22;48433;53.016;-2.260;2022-08-01T10:45:49;26.80;58.20
59309;DHT22;48433;53.016;-2.260;2022-08-01T10:51:27;27.10;56.40
59309;DHT22;48433;53.016;-2.260;2022-08-01T10:54:16;27.20;56.50
59309;DHT22;48433;53.016;-2.260;2022-08-01T10:56:46;27.40;56.20
59309;DHT22;48433;53.016;-2.260;2022-08-01T10:59:28;27.40;54.30
59309;DHT22;48433;53.016;-2.260;2022-08-01T11:05:03;27.50;56.10
59309;DHT22;48433;53.016;-2.260;2022-08-01T11:07:53;27.80;54.80
59309;DHT22;48433;53.016;-2.260;2022-08-01T11:13:01;28.40;51.90
59309;DHT22;48433;53.016;-2.260;2022-08-01T11:15:30;28.60;51.30
59309;DHT22;48433;53.016;-2.260;2022-08-01T11:18:00;28.60;50.60
59309;DHT22;48433;53.016;-2.260;2022-08-01T11:20:32;28.70;51.30
59309;DHT22;48433;53.016;-2.260;2022-08-01T11:23:15;28.90;50.80
59309;DHT22;48433;53.016;-2.260;2022-08-01T11:28:33;29.30;49.40
59309;DHT22;48433;53.016;-2.260;2022-08-01T11:41:21;29.40;46.70
59309;DHT22;48433;53.016;-2.260;2022-08-01T11:44:13;29.50;47.20
59309;DHT22;48433;53.016;-2.260;2022-08-01T11:55:04;30.50;44.10
59309;DHT22;48433;53.016;-2.260;2022-08-01T11:57:37;30.70;43.00
59309;DHT22;48433;53.016;-2.260;2022-08-01T12:02:42;30.10;43.20
59309;DHT22;48433;53.016;-2.260;2022-08-01T12:05:14;29.70;42.90
59309;DHT22;48433;53.016;-2.260;2022-08-01T12:07:44;29.10;44.10
59309;DHT22;48433;53.016;-2.260;2022-08-01T12:10:15;29.10;45.00
59309;DHT22;48433;53.016;-2.260;2022-08-01T12:12:53;29.20;44.10
59309;DHT22;48433;53.016;-2.260;2022-08-01T12:15:23;29.10;44.30
59309;DHT22;48433;53.016;-2.260;2022-08-01T12:17:56;29.30;44.50
59309;DHT22;48433;53.016;-2.260;2022-08-01T12:20:31;29.60;44.10
59309;DHT22;48433;53.016;-2.260;2022-08-01T12:23:01;30.10;43.60
59309;DHT22;48433;53.016;-2.260;2022-08-01T12:25:29;30.50;42.30
59309;DHT22;48433;53.016;-2.260;2022-08-01T12:28:00;30.80;42.10
59309;DHT22;48433;53.016;-2.260;2022-08-01T12:30:29;30.90;41.90
59309;DHT22;48433;53.016;-2.260;2022-08-01T12:32:58;30.80;40.70
59309;DHT22;48433;53.016;-2.260;2022-08-01T12:35:27;30.60;40.90
59309;DHT22;48433;53.016;-2.260;2022-08-01T12:38:19;30.40;41.00
59309;DHT22;48433;53.016;-2.260;2022-08-01T12:40:49;29.80;41.20
59309;DHT22;48433;53.016;-2.260;2022-08-01T12:43:21;29.40;41.90
59309;DHT22;48433;53.016;-2.260;2022-08-01T12:45:59;29.40;42.80
59309;DHT22;48433;53.016;-2.260;2022-08-01T12:48:29;29.80;42.30
59309;DHT22;48433;53.016;-2.260;2022-08-01T12:50:59;30.20;42.40
59309;DHT22;48433;53.016;-2.260;2022-08-01T12:53:32;30.40;41.90
59309;DHT22;48433;53.016;-2.260;2022-08-01T12:56:09;30.70;41.00
59309;DHT22;48433;53.016;-2.260;2022-08-01T12:58:40;31.00;40.50
59309;DHT22;48433;53.016;-2.260;2022-08-01T13:01:09;30.90;40.30
59309;DHT22;48433;53.016;-2.260;2022-08-01T13:03:38;30.70;40.50
59309;DHT22;48433;53.016;-2.260;2022-08-01T13:06:13;30.40;41.00
59309;DHT22;48433;53.016;-2.260;2022-08-01T13:08:43;30.10;41.40
59309;DHT22;48433;53.016;-2.260;2022-08-01T13:11:12;30.10;41.70
59309;DHT22;48433;53.016;-2.260;2022-08-01T13:13:47;30.30;41.30
59309;DHT22;48433;53.016;-2.260;2022-08-01T13:16:20;30.40;41.40
59309;DHT22;48433;53.016;-2.260;2022-08-01T13:19:00;30.30;41.20
59309;DHT22;48433;53.016;-2.260;2022-08-01T13:21:31;30.00;41.40
59309;DHT22;48433;53.016;-2.260;2022-08-01T13:24:27;29.80;42.60
59309;DHT22;48433;53.016;-2.260;2022-08-01T13:27:00;29.90;42.20
59309;DHT22;48433;53.016;-2.260;2022-08-01T13:29:39;29.80;41.90
59309;DHT22;48433;53.016;-2.260;2022-08-01T13:32:20;29.70;41.80
59309;DHT22;48433;53.016;-2.260;2022-08-01T13:37:30;29.20;42.40
59309;DHT22;48433;53.016;-2.260;2022-08-01T13:39:58;28.70;43.70
59309;DHT22;48433;53.016;-2.260;2022-08-01T13:42:26;28.20;44.40
59309;DHT22;48433;53.016;-2.260;2022-08-01T13:44:56;28.00;45.40
59309;DHT22;48433;53.016;-2.260;2022-08-01T13:47:24;28.20;45.40
59309;DHT22;48433;53.016;-2.260;2022-08-01T13:49:59;28.30;45.10
59309;DHT22;48433;53.016;-2.260;2022-08-01T13:52:31;28.30;45.10
59309;DHT22;48433;53.016;-2.260;2022-08-01T13:54:59;28.10;44.70
59309;DHT22;48433;53.016;-2.260;2022-08-01T13:57:28;27.90;45.00
59309;DHT22;48433;53.016;-2.260;2022-08-01T14:00:06;27.60;45.80
59309;DHT22;48433;53.016;-2.260;2022-08-01T14:02:38;27.30;46.70
59309;DHT22;48433;53.016;-2.260;2022-08-01T14:05:06;27.10;47.10
59309;DHT22;48433;53.016;-2.260;2022-08-01T14:07:35;27.10;47.50
59309;DHT22;48433;53.016;-2.260;2022-08-01T14:10:05;27.30;47.70
59309;DHT22;48433;53.016;-2.260;2022-08-01T14:12:47;27.60;47.60
59309;DHT22;48433;53.016;-2.260;2022-08-01T14:15:16;27.80;46.80
59309;DHT22;48433;53.016;-2.260;2022-08-01T14:18:05;27.70;46.40
59309;DHT22;48433;53.016;-2.260;2022-08-01T14:20:34;27.80;47.00
59309;DHT22;48433;53.016;-2.260;2022-08-01T14:23:02;27.90;46.90
59309;DHT22;48433;53.016;-2.260;2022-08-01T14:25:38;27.90;47.30
59309;DHT22;48433;53.016;-2.260;2022-08-01T14:28:26;27.70;46.80
59309;DHT22;48433;53.016;-2.260;2022-08-01T14:30:59;27.50;47.30
59309;DHT22;48433;53.016;-2.260;2022-08-01T14:33:27;27.50;47.90
59309;DHT22;48433;53.016;-2.260;2022-08-01T14:35:55;27.70;47.70
59309;DHT22;48433;53.016;-2.260;2022-08-01T14:38:43;28.10;47.10
59309;DHT22;48433;53.016;-2.260;2022-08-01T14:41:14;28.60;46.00
59309;DHT22;48433;53.016;-2.260;2022-08-01T14:43:42;28.80;45.70
59309;DHT22;48433;53.016;-2.260;2022-08-01T14:46:10;28.80;45.60
59309;DHT22;48433;53.016;-2.260;2022-08-01T14:48:39;28.80;45.60
59309;DHT22;48433;53.016;-2.260;2022-08-01T14:51:07;28.90;45.50
59309;DHT22;48433;53.016;-2.260;2022-08-01T14:53:35;29.00;45.60
59309;DHT22;48433;53.016;-2.260;2022-08-01T14:56:04;29.10;45.50
59309;DHT22;48433;53.016;-2.260;2022-08-01T14:58:32;29.40;45.50
59309;DHT22;48433;53.016;-2.260;2022-08-01T15:01:00;29.60;45.10
59309;DHT22;48433;53.016;-2.260;2022-08-01T15:03:28;29.60;44.40
59309;DHT22;48433;53.016;-2.260;2022-08-01T15:05:56;29.50;44.50
59309;DHT22;48433;53.016;-2.260;2022-08-01T15:08:24;29.30;44.70
59309;DHT22;48433;53.016;-2.260;2022-08-01T15:10:52;29.00;44.90
59309;DHT22;48433;53.016;-2.260;2022-08-01T15:13:19;28.70;44.80
59309;DHT22;48433;53.016;-2.260;2022-08-01T15:15:47;28.40;45.90
59309;DHT22;48433;53.016;-2.260;2022-08-01T15:18:15;28.00;46.00
59309;DHT22;48433;53.016;-2.260;2022-08-01T15:20:43;27.70;46.60
59309;DHT22;48433;53.016;-2.260;2022-08-01T15:23:11;27.50;47.50
59309;DHT22;48433;53.016;-2.260;2022-08-01T15:25:38;27.50;48.00
59309;DHT22;48433;53.016;-2.260;2022-08-01T15:28:09;27.70;47.70
59309;DHT22;48433;53.016;-2.260;2022-08-01T15:30:37;27.60;47.20
59309;DHT22;48433;53.016;-2.260;2022-08-01T15:33:05;27.50;47.70
59309;DHT22;48433;53.016;-2.260;2022-08-01T15:35:34;27.30;48.40
59309;DHT22;48433;53.016;-2.260;2022-08-01T15:38:02;27.30;48.50
59309;DHT22;48433;53.016;-2.260;2022-08-01T15:40:35;27.30;47.80
59309;DHT22;48433;53.016;-2.260;2022-08-01T15:43:03;27.40;48.30
59309;DHT22;48433;53.016;-2.260;2022-08-01T15:45:31;27.60;48.30
59309;DHT22;48433;53.016;-2.260;2022-08-01T15:48:16;27.90;48.40
59309;DHT22;48433;53.016;-2.260;2022-08-01T15:50:44;28.30;47.20
59309;DHT22;48433;53.016;-2.260;2022-08-01T15:53:12;28.30;46.30
59309;DHT22;48433;53.016;-2.260;2022-08-01T15:55:40;28.20;46.30
59309;DHT22;48433;53.016;-2.260;2022-08-01T15:58:15;28.00;46.80
59309;DHT22;48433;53.016;-2.260;2022-08-01T16:00:42;27.80;47.00
59309;DHT22;48433;53.016;-2.260;2022-08-01T16:03:10;27.70;47.20
59309;DHT22;48433;53.016;-2.260;2022-08-01T16:05:38;27.70;47.20
59309;DHT22;48433;53.016;-2.260;2022-08-01T16:08:13;27.70;47.70
59309;DHT22;48433;53.016;-2.260;2022-08-01T16:10:41;27.80;48.20
59309;DHT22;48433;53.016;-2.260;2022-08-01T16:13:09;27.90;48.20
59309;DHT22;48433;53.016;-2.260;2022-08-01T16:15:38;27.90;47.80
59309;DHT22;48433;53.016;-2.260;2022-08-01T16:18:11;27.80;47.30
59309;DHT22;48433;53.016;-2.260;2022-08-01T16:20:40;27.60;47.50
59309;DHT22;48433;53.016;-2.260;2022-08-01T16:23:15;27.30;47.70
59309;DHT22;48433;53.016;-2.260;2022-08-01T16:25:43;27.10;48.00
59309;DHT22;48433;53.016;-2.260;2022-08-01T16:28:11;26.90;48.50
59309;DHT22;48433;53.016;-2.260;2022-08-01T16:30:41;26.70;49.30
59309;DHT22;48433;53.016;-2.260;2022-08-01T16:33:29;26.70;49.50
59309;DHT22;48433;53.016;-2.260;2022-08-01T16:36:17;26.60;49.60
59309;DHT22;48433;53.016;-2.260;2022-08-01T16:38:45;26.50;50.20